Burns Flat, Oklahoma
Current Conditions -  °F | °C
As of 1:53 PM on Thursday 23 Oct 2014 (Local Time) from KCSM Reporting Station
Clear Clear  
Wind Chill: 23°   Ceiling: Unl
Heat Index: 23°   Visibility: 10mi
Dew Point: 16°   Wind: 12mph
Humidity: 66%   Direction: 200°SSW
Pressure: 30.1"   Gusts: NA
Location:  35.35°N, 99.17°W
Report Text: KCSM 231853Z 20010KT 10SM CLR 23/16 A3010 RMK AO2 SLP178 T02280161
Loading
Personal Weather Stations






























Interactive Weather Map
Tropical Storm Tracking
New forecast layout! Learn more

10-Day Weather Forecast

Advertisements
Track Severe Weather on mobile